sensor_id;sensor_type;location;lat;lon;timestamp;P1;durP1;ratioP1;P2;durP2;ratioP2
78589;SDS011;67888;50.228;7.828;2024-02-26T00:00:51;7.97;;;3.07;;
78589;SDS011;67888;50.228;7.828;2024-02-26T00:05:51;5.23;;;1.83;;
78589;SDS011;67888;50.228;7.828;2024-02-26T00:10:52;4.00;;;1.47;;
78589;SDS011;67888;50.228;7.828;2024-02-26T00:15:52;6.63;;;1.63;;
78589;SDS011;67888;50.228;7.828;2024-02-26T00:20:52;4.57;;;1.80;;
78589;SDS011;67888;50.228;7.828;2024-02-26T00:25:53;4.63;;;1.90;;
78589;SDS011;67888;50.228;7.828;2024-02-26T00:30:54;5.70;;;2.70;;
78589;SDS011;67888;50.228;7.828;2024-02-26T00:35:56;6.03;;;1.75;;
78589;SDS011;67888;50.228;7.828;2024-02-26T00:40:56;2.40;;;1.10;;
78589;SDS011;67888;50.228;7.828;2024-02-26T00:45:57;4.50;;;1.40;;
78589;SDS011;67888;50.228;7.828;2024-02-26T00:50:57;4.57;;;1.70;;
78589;SDS011;67888;50.228;7.828;2024-02-26T00:55:58;3.80;;;1.23;;
78589;SDS011;67888;50.228;7.828;2024-02-26T01:01:01;4.68;;;1.40;;
78589;SDS011;67888;50.228;7.828;2024-02-26T01:06:03;6.90;;;1.87;;
78589;SDS011;67888;50.228;7.828;2024-02-26T01:11:03;7.53;;;2.65;;
78589;SDS011;67888;50.228;7.828;2024-02-26T01:16:04;6.03;;;2.10;;
78589;SDS011;67888;50.228;7.828;2024-02-26T01:21:05;4.40;;;1.70;;
78589;SDS011;67888;50.228;7.828;2024-02-26T01:26:08;4.20;;;1.80;;
78589;SDS011;67888;50.228;7.828;2024-02-26T01:31:09;4.80;;;1.33;;
78589;SDS011;67888;50.228;7.828;2024-02-26T01:36:10;4.05;;;1.60;;
78589;SDS011;67888;50.228;7.828;2024-02-26T01:41:10;5.10;;;1.40;;
78589;SDS011;67888;50.228;7.828;2024-02-26T01:46:11;4.57;;;1.40;;
78589;SDS011;67888;50.228;7.828;2024-02-26T01:51:14;4.75;;;1.50;;
78589;SDS011;67888;50.228;7.828;2024-02-26T01:56:15;2.88;;;1.20;;
78589;SDS011;67888;50.228;7.828;2024-02-26T02:01:18;3.87;;;1.20;;
78589;SDS011;67888;50.228;7.828;2024-02-26T02:06:22;4.28;;;1.45;;
78589;SDS011;67888;50.228;7.828;2024-02-26T02:11:23;4.70;;;1.30;;
78589;SDS011;67888;50.228;7.828;2024-02-26T02:16:24;6.07;;;1.90;;
78589;SDS011;67888;50.228;7.828;2024-02-26T02:21:24;4.87;;;1.60;;
78589;SDS011;67888;50.228;7.828;2024-02-26T02:26:25;3.70;;;1.13;;
78589;SDS011;67888;50.228;7.828;2024-02-26T02:31:26;8.63;;;2.80;;
78589;SDS011;67888;50.228;7.828;2024-02-26T02:36:27;6.23;;;1.83;;
78589;SDS011;67888;50.228;7.828;2024-02-26T02:41:27;2.87;;;1.20;;
78589;SDS011;67888;50.228;7.828;2024-02-26T02:46:29;3.57;;;1.43;;
78589;SDS011;67888;50.228;7.828;2024-02-26T02:51:31;5.20;;;1.70;;
78589;SDS011;67888;50.228;7.828;2024-02-26T02:56:31;4.60;;;1.50;;
78589;SDS011;67888;50.228;7.828;2024-02-26T03:01:32;4.73;;;1.40;;
78589;SDS011;67888;50.228;7.828;2024-02-26T03:06:35;3.15;;;1.48;;
78589;SDS011;67888;50.228;7.828;2024-02-26T03:11:35;3.87;;;1.40;;
78589;SDS011;67888;50.228;7.828;2024-02-26T03:16:35;5.33;;;1.83;;
78589;SDS011;67888;50.228;7.828;2024-02-26T03:21:36;4.27;;;1.50;;
78589;SDS011;67888;50.228;7.828;2024-02-26T03:26:36;3.80;;;1.67;;
78589;SDS011;67888;50.228;7.828;2024-02-26T03:31:37;3.63;;;1.47;;
78589;SDS011;67888;50.228;7.828;2024-02-26T03:36:37;4.95;;;1.55;;
78589;SDS011;67888;50.228;7.828;2024-02-26T03:41:38;5.67;;;1.80;;
78589;SDS011;67888;50.228;7.828;2024-02-26T03:46:38;3.87;;;1.50;;
78589;SDS011;67888;50.228;7.828;2024-02-26T03:51:39;3.47;;;1.50;;
78589;SDS011;67888;50.228;7.828;2024-02-26T03:56:40;3.28;;;1.30;;
78589;SDS011;67888;50.228;7.828;2024-02-26T04:01:44;3.03;;;1.30;;
78589;SDS011;67888;50.228;7.828;2024-02-26T04:06:48;4.78;;;1.60;;
78589;SDS011;67888;50.228;7.828;2024-02-26T04:11:48;3.03;;;1.10;;
78589;SDS011;67888;50.228;7.828;2024-02-26T04:16:49;3.60;;;1.50;;
78589;SDS011;67888;50.228;7.828;2024-02-26T04:21:52;5.70;;;1.60;;
78589;SDS011;67888;50.228;7.828;2024-02-26T04:26:52;3.90;;;1.20;;
78589;SDS011;67888;50.228;7.828;2024-02-26T04:31:53;4.73;;;1.60;;
78589;SDS011;67888;50.228;7.828;2024-02-26T04:36:53;4.67;;;1.53;;
78589;SDS011;67888;50.228;7.828;2024-02-26T04:41:54;5.30;;;1.60;;
78589;SDS011;67888;50.228;7.828;2024-02-26T04:46:54;2.83;;;1.10;;
78589;SDS011;67888;50.228;7.828;2024-02-26T04:51:54;2.87;;;1.43;;
78589;SDS011;67888;50.228;7.828;2024-02-26T04:56:55;4.60;;;1.60;;
78589;SDS011;67888;50.228;7.828;2024-02-26T05:01:56;4.50;;;1.40;;
78589;SDS011;67888;50.228;7.828;2024-02-26T05:06:57;5.90;;;2.07;;
78589;SDS011;67888;50.228;7.828;2024-02-26T05:11:57;6.10;;;2.50;;
78589;SDS011;67888;50.228;7.828;2024-02-26T05:16:58;5.77;;;2.43;;
78589;SDS011;67888;50.228;7.828;2024-02-26T05:21:58;8.15;;;3.20;;
78589;SDS011;67888;50.228;7.828;2024-02-26T05:26:59;8.77;;;3.27;;
78589;SDS011;67888;50.228;7.828;2024-02-26T05:32:00;12.03;;;5.20;;
78589;SDS011;67888;50.228;7.828;2024-02-26T05:37:00;11.80;;;4.27;;
78589;SDS011;67888;50.228;7.828;2024-02-26T05:42:01;10.63;;;4.30;;
78589;SDS011;67888;50.228;7.828;2024-02-26T05:47:01;12.87;;;5.90;;
78589;SDS011;67888;50.228;7.828;2024-02-26T05:52:02;10.20;;;3.90;;
78589;SDS011;67888;50.228;7.828;2024-02-26T05:57:02;7.90;;;3.17;;
78589;SDS011;67888;50.228;7.828;2024-02-26T06:02:03;9.88;;;3.97;;
78589;SDS011;67888;50.228;7.828;2024-02-26T06:07:04;7.70;;;3.30;;
78589;SDS011;67888;50.228;7.828;2024-02-26T06:12:05;8.57;;;3.35;;
78589;SDS011;67888;50.228;7.828;2024-02-26T06:17:06;7.03;;;2.87;;
78589;SDS011;67888;50.228;7.828;2024-02-26T06:22:07;7.18;;;3.05;;
78589;SDS011;67888;50.228;7.828;2024-02-26T06:27:08;6.40;;;3.17;;
78589;SDS011;67888;50.228;7.828;2024-02-26T06:32:08;7.80;;;2.65;;
78589;SDS011;67888;50.228;7.828;2024-02-26T06:37:09;6.60;;;2.63;;
78589;SDS011;67888;50.228;7.828;2024-02-26T06:42:09;5.83;;;2.20;;
78589;SDS011;67888;50.228;7.828;2024-02-26T06:47:10;7.57;;;2.63;;
78589;SDS011;67888;50.228;7.828;2024-02-26T06:52:11;6.47;;;2.60;;
78589;SDS011;67888;50.228;7.828;2024-02-26T06:57:12;5.57;;;2.30;;
78589;SDS011;67888;50.228;7.828;2024-02-26T07:02:13;5.20;;;2.10;;
78589;SDS011;67888;50.228;7.828;2024-02-26T07:07:14;7.23;;;2.33;;
78589;SDS011;67888;50.228;7.828;2024-02-26T07:12:14;7.40;;;2.70;;
78589;SDS011;67888;50.228;7.828;2024-02-26T07:17:16;9.20;;;4.35;;
78589;SDS011;67888;50.228;7.828;2024-02-26T07:22:16;8.80;;;4.10;;
78589;SDS011;67888;50.228;7.828;2024-02-26T07:27:20;9.40;;;4.23;;
78589;SDS011;67888;50.228;7.828;2024-02-26T07:32:21;7.60;;;3.28;;
78589;SDS011;67888;50.228;7.828;2024-02-26T07:37:22;8.48;;;3.10;;
78589;SDS011;67888;50.228;7.828;2024-02-26T07:42:23;7.33;;;3.30;;
78589;SDS011;67888;50.228;7.828;2024-02-26T07:47:23;8.37;;;3.30;;
78589;SDS011;67888;50.228;7.828;2024-02-26T07:52:23;6.80;;;3.10;;
78589;SDS011;67888;50.228;7.828;2024-02-26T07:57:24;7.17;;;2.63;;
78589;SDS011;67888;50.228;7.828;2024-02-26T08:02:24;6.87;;;2.80;;
78589;SDS011;67888;50.228;7.828;2024-02-26T08:07:25;7.03;;;2.40;;
78589;SDS011;67888;50.228;7.828;2024-02-26T08:12:25;6.40;;;2.70;;
78589;SDS011;67888;50.228;7.828;2024-02-26T08:17:26;7.87;;;3.73;;
78589;SDS011;67888;50.228;7.828;2024-02-26T08:22:27;6.57;;;3.13;;
78589;SDS011;67888;50.228;7.828;2024-02-26T08:27:27;5.50;;;2.60;;
78589;SDS011;67888;50.228;7.828;2024-02-26T08:32:28;7.23;;;3.10;;
78589;SDS011;67888;50.228;7.828;2024-02-26T08:37:28;7.57;;;3.07;;
78589;SDS011;67888;50.228;7.828;2024-02-26T08:42:29;7.27;;;3.10;;
78589;SDS011;67888;50.228;7.828;2024-02-26T08:47:30;7.32;;;3.53;;
78589;SDS011;67888;50.228;7.828;2024-02-26T08:52:30;8.00;;;3.23;;
78589;SDS011;67888;50.228;7.828;2024-02-26T08:57:31;8.87;;;3.93;;
78589;SDS011;67888;50.228;7.828;2024-02-26T09:02:33;10.35;;;5.03;;
78589;SDS011;67888;50.228;7.828;2024-02-26T09:07:34;8.83;;;3.70;;
78589;SDS011;67888;50.228;7.828;2024-02-26T09:12:34;7.50;;;3.53;;
78589;SDS011;67888;50.228;7.828;2024-02-26T09:17:37;9.25;;;3.88;;
78589;SDS011;67888;50.228;7.828;2024-02-26T09:22:39;7.23;;;2.77;;
78589;SDS011;67888;50.228;7.828;2024-02-26T09:27:39;6.90;;;3.08;;
78589;SDS011;67888;50.228;7.828;2024-02-26T09:32:40;6.63;;;2.70;;
78589;SDS011;67888;50.228;7.828;2024-02-26T09:37:40;6.20;;;2.60;;
78589;SDS011;67888;50.228;7.828;2024-02-26T09:42:43;6.10;;;2.67;;
78589;SDS011;67888;50.228;7.828;2024-02-26T09:47:45;6.70;;;3.03;;
78589;SDS011;67888;50.228;7.828;2024-02-26T09:52:48;5.15;;;2.50;;
78589;SDS011;67888;50.228;7.828;2024-02-26T09:57:50;7.22;;;3.13;;
78589;SDS011;67888;50.228;7.828;2024-02-26T10:02:51;6.60;;;2.83;;
78589;SDS011;67888;50.228;7.828;2024-02-26T10:07:52;6.67;;;3.00;;
78589;SDS011;67888;50.228;7.828;2024-02-26T10:12:53;8.77;;;3.70;;
78589;SDS011;67888;50.228;7.828;2024-02-26T10:17:53;8.23;;;3.92;;
78589;SDS011;67888;50.228;7.828;2024-02-26T10:22:54;7.23;;;3.50;;
78589;SDS011;67888;50.228;7.828;2024-02-26T10:27:54;5.93;;;2.47;;
78589;SDS011;67888;50.228;7.828;2024-02-26T10:32:57;6.33;;;3.00;;
78589;SDS011;67888;50.228;7.828;2024-02-26T10:37:57;6.88;;;3.28;;
78589;SDS011;67888;50.228;7.828;2024-02-26T10:42:58;7.47;;;3.50;;
78589;SDS011;67888;50.228;7.828;2024-02-26T10:48:00;8.13;;;3.55;;
78589;SDS011;67888;50.228;7.828;2024-02-26T10:53:00;8.70;;;4.10;;
78589;SDS011;67888;50.228;7.828;2024-02-26T10:58:02;9.60;;;4.75;;
78589;SDS011;67888;50.228;7.828;2024-02-26T11:03:04;9.75;;;5.20;;
78589;SDS011;67888;50.228;7.828;2024-02-26T11:08:06;9.20;;;4.23;;
78589;SDS011;67888;50.228;7.828;2024-02-26T11:13:07;9.15;;;4.28;;
78589;SDS011;67888;50.228;7.828;2024-02-26T11:18:13;8.82;;;4.40;;
78589;SDS011;67888;50.228;7.828;2024-02-26T11:23:14;9.93;;;4.20;;
78589;SDS011;67888;50.228;7.828;2024-02-26T11:28:15;8.48;;;4.18;;
78589;SDS011;67888;50.228;7.828;2024-02-26T11:33:18;9.57;;;4.30;;
78589;SDS011;67888;50.228;7.828;2024-02-26T11:38:21;9.33;;;3.83;;
78589;SDS011;67888;50.228;7.828;2024-02-26T11:43:49;9.35;;;3.80;;
78589;SDS011;67888;50.228;7.828;2024-02-26T11:49:00;7.53;;;3.60;;
78589;SDS011;67888;50.228;7.828;2024-02-26T11:54:03;8.33;;;3.90;;
78589;SDS011;67888;50.228;7.828;2024-02-26T11:59:04;9.82;;;4.13;;
78589;SDS011;67888;50.228;7.828;2024-02-26T12:04:14;8.93;;;3.80;;
78589;SDS011;67888;50.228;7.828;2024-02-26T12:14:53;8.38;;;3.90;;
78589;SDS011;67888;50.228;7.828;2024-02-26T12:19:56;8.07;;;3.73;;
78589;SDS011;67888;50.228;7.828;2024-02-26T12:25:09;9.15;;;4.00;;
78589;SDS011;67888;50.228;7.828;2024-02-26T12:30:10;9.23;;;4.27;;
78589;SDS011;67888;50.228;7.828;2024-02-26T12:35:13;9.30;;;4.15;;
78589;SDS011;67888;50.228;7.828;2024-02-26T12:40:15;8.80;;;4.03;;
78589;SDS011;67888;50.228;7.828;2024-02-26T12:45:17;8.80;;;4.07;;
78589;SDS011;67888;50.228;7.828;2024-02-26T12:50:17;9.77;;;4.27;;
78589;SDS011;67888;50.228;7.828;2024-02-26T12:55:19;9.43;;;4.33;;
78589;SDS011;67888;50.228;7.828;2024-02-26T13:00:25;8.25;;;4.10;;
78589;SDS011;67888;50.228;7.828;2024-02-26T13:05:27;9.43;;;4.37;;
78589;SDS011;67888;50.228;7.828;2024-02-26T13:10:28;10.37;;;4.17;;
78589;SDS011;67888;50.228;7.828;2024-02-26T13:15:29;8.25;;;3.90;;
78589;SDS011;67888;50.228;7.828;2024-02-26T13:20:30;9.77;;;4.40;;
78589;SDS011;67888;50.228;7.828;2024-02-26T13:25:30;8.33;;;3.83;;
78589;SDS011;67888;50.228;7.828;2024-02-26T13:30:31;9.55;;;4.43;;
78589;SDS011;67888;50.228;7.828;2024-02-26T13:35:32;9.17;;;4.60;;
78589;SDS011;67888;50.228;7.828;2024-02-26T13:40:35;8.15;;;3.88;;
78589;SDS011;67888;50.228;7.828;2024-02-26T13:45:36;8.50;;;4.30;;
78589;SDS011;67888;50.228;7.828;2024-02-26T13:50:38;9.85;;;4.32;;
78589;SDS011;67888;50.228;7.828;2024-02-26T13:55:40;11.20;;;4.37;;
78589;SDS011;67888;50.228;7.828;2024-02-26T14:00:43;9.82;;;4.55;;
78589;SDS011;67888;50.228;7.828;2024-02-26T14:05:44;9.27;;;4.07;;
78589;SDS011;67888;50.228;7.828;2024-02-26T14:10:44;8.73;;;4.43;;
78589;SDS011;67888;50.228;7.828;2024-02-26T14:15:45;9.18;;;3.85;;
78589;SDS011;67888;50.228;7.828;2024-02-26T14:20:45;7.93;;;3.73;;
78589;SDS011;67888;50.228;7.828;2024-02-26T14:25:46;9.33;;;4.00;;
78589;SDS011;67888;50.228;7.828;2024-02-26T14:30:46;9.63;;;4.37;;
78589;SDS011;67888;50.228;7.828;2024-02-26T14:35:47;8.93;;;3.70;;
78589;SDS011;67888;50.228;7.828;2024-02-26T14:40:47;9.90;;;3.70;;
78589;SDS011;67888;50.228;7.828;2024-02-26T14:45:48;8.73;;;3.60;;
78589;SDS011;67888;50.228;7.828;2024-02-26T14:50:49;7.90;;;3.43;;
78589;SDS011;67888;50.228;7.828;2024-02-26T14:55:50;8.68;;;3.45;;
78589;SDS011;67888;50.228;7.828;2024-02-26T15:00:51;9.90;;;3.93;;
78589;SDS011;67888;50.228;7.828;2024-02-26T15:05:51;9.40;;;4.00;;
78589;SDS011;67888;50.228;7.828;2024-02-26T15:10:52;8.67;;;3.40;;
78589;SDS011;67888;50.228;7.828;2024-02-26T15:15:52;8.30;;;3.90;;
78589;SDS011;67888;50.228;7.828;2024-02-26T15:20:53;9.50;;;4.30;;
78589;SDS011;67888;50.228;7.828;2024-02-26T15:25:53;8.45;;;3.30;;
78589;SDS011;67888;50.228;7.828;2024-02-26T15:30:53;8.00;;;3.30;;
78589;SDS011;67888;50.228;7.828;2024-02-26T15:35:54;10.27;;;4.00;;
78589;SDS011;67888;50.228;7.828;2024-02-26T15:40:54;8.43;;;3.40;;
78589;SDS011;67888;50.228;7.828;2024-02-26T15:45:55;7.33;;;3.57;;
78589;SDS011;67888;50.228;7.828;2024-02-26T15:50:55;9.57;;;3.90;;
78589;SDS011;67888;50.228;7.828;2024-02-26T15:55:56;9.17;;;3.37;;
78589;SDS011;67888;50.228;7.828;2024-02-26T16:00:57;13.05;;;6.40;;
78589;SDS011;67888;50.228;7.828;2024-02-26T16:05:57;8.10;;;3.50;;
78589;SDS011;67888;50.228;7.828;2024-02-26T16:10:58;6.70;;;2.80;;
78589;SDS011;67888;50.228;7.828;2024-02-26T16:16:01;8.03;;;3.33;;
78589;SDS011;67888;50.228;7.828;2024-02-26T16:21:04;6.82;;;2.92;;
78589;SDS011;67888;50.228;7.828;2024-02-26T16:26:05;8.33;;;3.70;;
78589;SDS011;67888;50.228;7.828;2024-02-26T16:31:05;8.37;;;3.30;;
78589;SDS011;67888;50.228;7.828;2024-02-26T16:36:06;7.50;;;3.47;;
78589;SDS011;67888;50.228;7.828;2024-02-26T16:41:09;8.10;;;4.00;;
78589;SDS011;67888;50.228;7.828;2024-02-26T16:46:09;9.53;;;4.00;;
78589;SDS011;67888;50.228;7.828;2024-02-26T16:51:11;7.68;;;3.38;;
78589;SDS011;67888;50.228;7.828;2024-02-26T16:56:12;7.20;;;3.30;;
78589;SDS011;67888;50.228;7.828;2024-02-26T17:01:13;9.18;;;3.70;;
78589;SDS011;67888;50.228;7.828;2024-02-26T17:06:14;9.40;;;3.80;;
78589;SDS011;67888;50.228;7.828;2024-02-26T17:11:16;7.35;;;2.90;;
78589;SDS011;67888;50.228;7.828;2024-02-26T17:16:17;17.77;;;8.00;;
78589;SDS011;67888;50.228;7.828;2024-02-26T17:21:17;15.23;;;7.43;;
78589;SDS011;67888;50.228;7.828;2024-02-26T17:26:18;12.43;;;5.60;;
78589;SDS011;67888;50.228;7.828;2024-02-26T17:31:20;14.90;;;6.97;;
78589;SDS011;67888;50.228;7.828;2024-02-26T17:36:20;13.83;;;4.90;;
78589;SDS011;67888;50.228;7.828;2024-02-26T17:41:21;8.97;;;3.60;;
78589;SDS011;67888;50.228;7.828;2024-02-26T17:46:21;10.93;;;4.83;;
78589;SDS011;67888;50.228;7.828;2024-02-26T17:51:22;11.07;;;4.73;;
78589;SDS011;67888;50.228;7.828;2024-02-26T17:56:22;10.67;;;3.90;;
78589;SDS011;67888;50.228;7.828;2024-02-26T18:01:23;10.97;;;4.13;;
78589;SDS011;67888;50.228;7.828;2024-02-26T18:06:23;10.10;;;3.93;;
78589;SDS011;67888;50.228;7.828;2024-02-26T18:11:24;9.10;;;4.30;;
78589;SDS011;67888;50.228;7.828;2024-02-26T18:16:24;9.82;;;3.95;;
78589;SDS011;67888;50.228;7.828;2024-02-26T18:21:25;9.60;;;3.50;;
78589;SDS011;67888;50.228;7.828;2024-02-26T18:26:26;9.93;;;3.50;;
78589;SDS011;67888;50.228;7.828;2024-02-26T18:31:28;7.53;;;3.33;;
78589;SDS011;67888;50.228;7.828;2024-02-26T18:36:29;9.55;;;4.28;;
78589;SDS011;67888;50.228;7.828;2024-02-26T18:41:29;7.50;;;3.07;;
78589;SDS011;67888;50.228;7.828;2024-02-26T18:46:30;8.20;;;3.33;;
78589;SDS011;67888;50.228;7.828;2024-02-26T18:51:31;10.00;;;3.85;;
78589;SDS011;67888;50.228;7.828;2024-02-26T18:56:32;9.13;;;4.23;;
78589;SDS011;67888;50.228;7.828;2024-02-26T19:01:32;9.93;;;4.63;;
78589;SDS011;67888;50.228;7.828;2024-02-26T19:06:34;10.87;;;4.40;;
78589;SDS011;67888;50.228;7.828;2024-02-26T19:11:35;10.40;;;4.80;;
78589;SDS011;67888;50.228;7.828;2024-02-26T19:16:38;9.68;;;4.25;;
78589;SDS011;67888;50.228;7.828;2024-02-26T19:21:39;9.87;;;4.50;;
78589;SDS011;67888;50.228;7.828;2024-02-26T19:26:41;11.52;;;6.10;;
78589;SDS011;67888;50.228;7.828;2024-02-26T19:31:43;11.52;;;5.25;;
78589;SDS011;67888;50.228;7.828;2024-02-26T19:36:44;12.33;;;5.53;;
78589;SDS011;67888;50.228;7.828;2024-02-26T19:41:45;11.20;;;5.30;;
78589;SDS011;67888;50.228;7.828;2024-02-26T19:46:45;12.33;;;5.60;;
78589;SDS011;67888;50.228;7.828;2024-02-26T19:51:46;12.93;;;5.68;;
78589;SDS011;67888;50.228;7.828;2024-02-26T19:56:47;12.87;;;5.40;;
78589;SDS011;67888;50.228;7.828;2024-02-26T20:01:48;14.82;;;5.55;;
78589;SDS011;67888;50.228;7.828;2024-02-26T20:06:48;10.67;;;5.57;;
78589;SDS011;67888;50.228;7.828;2024-02-26T20:11:51;11.13;;;5.67;;
78589;SDS011;67888;50.228;7.828;2024-02-26T20:16:53;13.37;;;5.47;;
78589;SDS011;67888;50.228;7.828;2024-02-26T20:21:54;12.52;;;5.55;;
78589;SDS011;67888;50.228;7.828;2024-02-26T20:26:54;10.77;;;5.43;;
78589;SDS011;67888;50.228;7.828;2024-02-26T20:31:55;10.13;;;4.43;;
78589;SDS011;67888;50.228;7.828;2024-02-26T20:36:56;10.95;;;4.82;;
78589;SDS011;67888;50.228;7.828;2024-02-26T20:41:57;12.10;;;5.30;;
78589;SDS011;67888;50.228;7.828;2024-02-26T20:46:57;11.65;;;5.25;;
78589;SDS011;67888;50.228;7.828;2024-02-26T20:51:59;10.57;;;4.93;;
78589;SDS011;67888;50.228;7.828;2024-02-26T20:57:00;12.20;;;5.00;;
78589;SDS011;67888;50.228;7.828;2024-02-26T21:02:02;11.85;;;5.03;;
78589;SDS011;67888;50.228;7.828;2024-02-26T21:07:03;12.27;;;6.00;;
78589;SDS011;67888;50.228;7.828;2024-02-26T21:12:04;12.63;;;5.93;;
78589;SDS011;67888;50.228;7.828;2024-02-26T21:17:06;12.10;;;5.20;;
78589;SDS011;67888;50.228;7.828;2024-02-26T21:22:07;11.67;;;5.07;;
78589;SDS011;67888;50.228;7.828;2024-02-26T21:27:08;12.83;;;6.07;;
78589;SDS011;67888;50.228;7.828;2024-02-26T21:32:09;12.90;;;5.75;;
78589;SDS011;67888;50.228;7.828;2024-02-26T21:37:10;12.20;;;5.73;;
78589;SDS011;67888;50.228;7.828;2024-02-26T21:42:10;14.77;;;6.57;;
78589;SDS011;67888;50.228;7.828;2024-02-26T21:47:11;12.67;;;6.60;;
78589;SDS011;67888;50.228;7.828;2024-02-26T21:52:12;12.18;;;5.68;;
78589;SDS011;67888;50.228;7.828;2024-02-26T21:57:12;14.13;;;7.20;;
78589;SDS011;67888;50.228;7.828;2024-02-26T22:02:13;14.02;;;7.00;;
78589;SDS011;67888;50.228;7.828;2024-02-26T22:07:14;14.90;;;6.70;;
78589;SDS011;67888;50.228;7.828;2024-02-26T22:12:14;13.50;;;6.63;;
78589;SDS011;67888;50.228;7.828;2024-02-26T22:17:14;14.67;;;7.47;;
78589;SDS011;67888;50.228;7.828;2024-02-26T22:22:15;18.33;;;8.10;;
78589;SDS011;67888;50.228;7.828;2024-02-26T22:27:15;17.87;;;8.33;;
78589;SDS011;67888;50.228;7.828;2024-02-26T22:32:16;17.03;;;8.77;;
78589;SDS011;67888;50.228;7.828;2024-02-26T22:37:16;17.70;;;8.68;;
78589;SDS011;67888;50.228;7.828;2024-02-26T22:42:17;18.27;;;8.87;;
78589;SDS011;67888;50.228;7.828;2024-02-26T22:47:17;18.73;;;8.90;;
78589;SDS011;67888;50.228;7.828;2024-02-26T22:52:18;20.25;;;9.15;;
78589;SDS011;67888;50.228;7.828;2024-02-26T22:57:19;18.37;;;9.40;;
78589;SDS011;67888;50.228;7.828;2024-02-26T23:02:19;18.83;;;9.33;;
78589;SDS011;67888;50.228;7.828;2024-02-26T23:07:20;20.57;;;10.27;;
78589;SDS011;67888;50.228;7.828;2024-02-26T23:12:20;18.97;;;10.00;;
78589;SDS011;67888;50.228;7.828;2024-02-26T23:17:21;20.57;;;9.40;;
78589;SDS011;67888;50.228;7.828;2024-02-26T23:22:21;21.27;;;10.10;;
78589;SDS011;67888;50.228;7.828;2024-02-26T23:27:22;20.23;;;9.40;;
78589;SDS011;67888;50.228;7.828;2024-02-26T23:32:23;20.23;;;9.87;;
78589;SDS011;67888;50.228;7.828;2024-02-26T23:37:23;22.00;;;10.43;;
78589;SDS011;67888;50.228;7.828;2024-02-26T23:42:24;23.53;;;11.73;;
78589;SDS011;67888;50.228;7.828;2024-02-26T23:47:25;25.50;;;12.33;;
78589;SDS011;67888;50.228;7.828;2024-02-26T23:52:26;24.53;;;12.03;;
78589;SDS011;67888;50.228;7.828;2024-02-26T23:57:26;24.80;;;12.77;;
